sensor_id;sensor_type;location;lat;lon;timestamp;pressure;altitude;pressure_sealevel;temperature;humidity
18784;BME280;9520;50.954;6.968;2022-07-22T00:00:13;101536.38;;;26.71;49.01
18784;BME280;9520;50.954;6.968;2022-07-22T00:00:36;101536.28;;;26.72;49.63
18784;BME280;9520;50.954;6.968;2022-07-22T00:00:57;101514.72;;;26.58;49.65
18784;BME280;9520;50.954;6.968;2022-07-22T00:01:20;101535.72;;;26.67;49.48
18784;BME280;9520;50.954;6.968;2022-07-22T00:01:42;101541.78;;;26.71;49.28
18784;BME280;9520;50.954;6.968;2022-07-22T00:02:04;101536.78;;;26.64;49.02
18784;BME280;9520;50.954;6.968;2022-07-22T00:02:25;101540.16;;;26.68;48.82
18784;BME280;9520;50.954;6.968;2022-07-22T00:02:48;101541.13;;;26.67;49.04
18784;BME280;9520;50.954;6.968;2022-07-22T00:03:10;101538.53;;;26.65;48.55
18784;BME280;9520;50.954;6.968;2022-07-22T00:03:32;101536.78;;;26.64;48.45
18784;BME280;9520;50.954;6.968;2022-07-22T00:03:53;101542.19;;;26.64;48.68
18784;BME280;9520;50.954;6.968;2022-07-22T00:04:16;101541.22;;;26.65;48.76
18784;BME280;9520;50.954;6.968;2022-07-22T00:04:38;101539.50;;;26.64;48.85
18784;BME280;9520;50.954;6.968;2022-07-22T00:05:00;101531.59;;;26.61;48.75
18784;BME280;9520;50.954;6.968;2022-07-22T00:05:23;101540.69;;;26.60;48.54
18784;BME280;9520;50.954;6.968;2022-07-22T00:05:45;101539.06;;;26.58;48.63
18784;BME280;9520;50.954;6.968;2022-07-22T00:06:06;101542.63;;;26.58;49.22
18784;BME280;9520;50.954;6.968;2022-07-22T00:06:29;101544.34;;;26.59;49.65
18784;BME280;9520;50.954;6.968;2022-07-22T00:06:51;101545.34;;;26.58;50.02
18784;BME280;9520;50.954;6.968;2022-07-22T00:07:14;101538.19;;;26.57;50.12
18784;BME280;9520;50.954;6.968;2022-07-22T00:07:36;101520.06;;;26.45;49.68
18784;BME280;9520;50.954;6.968;2022-07-22T00:07:59;101538.28;;;26.56;50.18
18784;BME280;9520;50.954;6.968;2022-07-22T00:08:22;101540.91;;;26.57;49.69
18784;BME280;9520;50.954;6.968;2022-07-22T00:08:45;101550.84;;;26.57;50.10
18784;BME280;9520;50.954;6.968;2022-07-22T00:09:07;101543.94;;;26.53;49.54
18784;BME280;9520;50.954;6.968;2022-07-22T00:09:28;101543.94;;;26.53;49.31
18784;BME280;9520;50.954;6.968;2022-07-22T00:09:50;101542.19;;;26.52;49.16
18784;BME280;9520;50.954;6.968;2022-07-22T00:10:13;101532.63;;;26.46;49.44
18784;BME280;9520;50.954;6.968;2022-07-22T00:10:35;101534.38;;;26.47;49.08
18784;BME280;9520;50.954;6.968;2022-07-22T00:10:57;101538.91;;;26.47;49.09
18784;BME280;9520;50.954;6.968;2022-07-22T00:11:18;101541.53;;;26.48;48.50
18784;BME280;9520;50.954;6.968;2022-07-22T00:11:40;101542.50;;;26.47;48.88
18784;BME280;9520;50.954;6.968;2022-07-22T00:12:03;101543.28;;;26.49;48.55
18784;BME280;9520;50.954;6.968;2022-07-22T00:12:25;101541.63;;;26.47;48.98
18784;BME280;9520;50.954;6.968;2022-07-22T00:12:47;101540.66;;;26.48;49.18
18784;BME280;9520;50.954;6.968;2022-07-22T00:13:09;101537.94;;;26.48;49.55
18784;BME280;9520;50.954;6.968;2022-07-22T00:13:32;101543.47;;;26.46;48.73
18784;BME280;9520;50.954;6.968;2022-07-22T00:13:54;101540.84;;;26.45;49.44
18784;BME280;9520;50.954;6.968;2022-07-22T00:14:16;101542.50;;;26.47;49.06
18784;BME280;9520;50.954;6.968;2022-07-22T00:14:39;101538.81;;;26.48;48.86
18784;BME280;9520;50.954;6.968;2022-07-22T00:15:02;101543.28;;;26.49;48.04
18784;BME280;9520;50.954;6.968;2022-07-22T00:15:24;101528.41;;;26.42;48.27
18784;BME280;9520;50.954;6.968;2022-07-22T00:15:46;101538.81;;;26.48;48.50
18784;BME280;9520;50.954;6.968;2022-07-22T00:16:08;101537.94;;;26.48;47.84
18784;BME280;9520;50.954;6.968;2022-07-22T00:16:31;101542.41;;;26.49;47.91
18784;BME280;9520;50.954;6.968;2022-07-22T00:16:52;101543.28;;;26.49;48.24
18784;BME280;9520;50.954;6.968;2022-07-22T00:17:14;101539.78;;;26.47;47.99
18784;BME280;9520;50.954;6.968;2022-07-22T00:17:36;101535.66;;;26.42;47.50
18784;BME280;9520;50.954;6.968;2022-07-22T00:17:58;101539.31;;;26.41;47.56
18784;BME280;9520;50.954;6.968;2022-07-22T00:18:20;101539.31;;;26.41;47.90
18784;BME280;9520;50.954;6.968;2022-07-22T00:18:42;101543.88;;;26.40;48.03
18784;BME280;9520;50.954;6.968;2022-07-22T00:19:47;101541.16;;;26.40;48.02
18784;BME280;9520;50.954;6.968;2022-07-22T00:20:10;101538.59;;;26.39;47.87
18784;BME280;9520;50.954;6.968;2022-07-22T00:20:32;101540.28;;;26.40;47.91
18784;BME280;9520;50.954;6.968;2022-07-22T00:20:54;101536.84;;;26.38;47.51
18784;BME280;9520;50.954;6.968;2022-07-22T00:21:16;101533.25;;;26.37;47.17
18784;BME280;9520;50.954;6.968;2022-07-22T00:21:38;101541.38;;;26.37;47.46
18784;BME280;9520;50.954;6.968;2022-07-22T00:22:00;101536.94;;;26.36;47.61
18784;BME280;9520;50.954;6.968;2022-07-22T00:22:22;101536.06;;;26.36;48.24
18784;BME280;9520;50.954;6.968;2022-07-22T00:22:43;101534.22;;;26.36;48.52
18784;BME280;9520;50.954;6.968;2022-07-22T00:23:06;101533.25;;;26.37;48.53
18784;BME280;9520;50.954;6.968;2022-07-22T00:23:30;101536.75;;;26.39;47.85
18784;BME280;9520;50.954;6.968;2022-07-22T00:23:51;101535.09;;;26.37;48.78
18784;BME280;9520;50.954;6.968;2022-07-22T00:24:14;101543.88;;;26.40;48.28
18784;BME280;9520;50.954;6.968;2022-07-22T00:24:36;101533.03;;;26.40;48.04
18784;BME280;9520;50.954;6.968;2022-07-22T00:24:57;101541.16;;;26.40;47.61
18784;BME280;9520;50.954;6.968;2022-07-22T00:25:19;101541.16;;;26.40;48.10
18784;BME280;9520;50.954;6.968;2022-07-22T00:25:41;101534.88;;;26.40;47.75
18784;BME280;9520;50.954;6.968;2022-07-22T00:26:04;101538.47;;;26.40;48.50
18784;BME280;9520;50.954;6.968;2022-07-22T00:26:25;101538.47;;;26.40;48.31
18784;BME280;9520;50.954;6.968;2022-07-22T00:26:47;101535.88;;;26.39;48.10
18784;BME280;9520;50.954;6.968;2022-07-22T00:27:09;101538.59;;;26.39;47.66
18784;BME280;9520;50.954;6.968;2022-07-22T00:27:32;101535.41;;;26.32;47.70
18784;BME280;9520;50.954;6.968;2022-07-22T00:27:53;101535.31;;;26.34;47.61
18784;BME280;9520;50.954;6.968;2022-07-22T00:28:15;101530.00;;;26.32;47.39
18784;BME280;9520;50.954;6.968;2022-07-22T00:28:37;101520.28;;;26.30;47.80
18784;BME280;9520;50.954;6.968;2022-07-22T00:28:59;101542.34;;;26.36;47.89
18784;BME280;9520;50.954;6.968;2022-07-22T00:29:21;101523.06;;;26.28;47.88
18784;BME280;9520;50.954;6.968;2022-07-22T00:29:43;101532.41;;;26.37;47.61
18784;BME280;9520;50.954;6.968;2022-07-22T00:30:06;101524.38;;;26.35;47.66
18784;BME280;9520;50.954;6.968;2022-07-22T00:30:30;101538.69;;;26.37;47.01
18784;BME280;9520;50.954;6.968;2022-07-22T00:30:52;101528.72;;;26.38;47.15
18784;BME280;9520;50.954;6.968;2022-07-22T00:31:15;101536.75;;;26.39;47.57
18784;BME280;9520;50.954;6.968;2022-07-22T00:31:37;101540.28;;;26.40;47.49
18784;BME280;9520;50.954;6.968;2022-07-22T00:32:00;101537.03;;;26.35;47.48
18784;BME280;9520;50.954;6.968;2022-07-22T00:32:22;101533.66;;;26.31;46.96
18784;BME280;9520;50.954;6.968;2022-07-22T00:32:43;101534.53;;;26.32;47.27
18784;BME280;9520;50.954;6.968;2022-07-22T00:33:05;101536.28;;;26.33;47.00
18784;BME280;9520;50.954;6.968;2022-07-22T00:33:27;101530.00;;;26.32;47.28
18784;BME280;9520;50.954;6.968;2022-07-22T00:33:50;101536.28;;;26.33;47.70
18784;BME280;9520;50.954;6.968;2022-07-22T00:34:12;101538.22;;;26.31;48.13
18784;BME280;9520;50.954;6.968;2022-07-22T00:34:34;101530.88;;;26.33;47.70
18784;BME280;9520;50.954;6.968;2022-07-22T00:34:56;101537.16;;;26.33;47.77
18784;BME280;9520;50.954;6.968;2022-07-22T00:35:18;101538.03;;;26.34;48.57
18784;BME280;9520;50.954;6.968;2022-07-22T00:35:40;101540.81;;;26.32;47.97
18784;BME280;9520;50.954;6.968;2022-07-22T00:36:04;101528.16;;;26.33;48.46
18784;BME280;9520;50.954;6.968;2022-07-22T00:36:27;101534.44;;;26.33;48.51
18784;BME280;9520;50.954;6.968;2022-07-22T00:36:50;101534.53;;;26.32;47.80
18784;BME280;9520;50.954;6.968;2022-07-22T00:37:12;101528.38;;;26.30;47.90
18784;BME280;9520;50.954;6.968;2022-07-22T00:37:34;101535.31;;;26.34;48.08
18784;BME280;9520;50.954;6.968;2022-07-22T00:37:56;101532.63;;;26.34;47.92
18784;BME280;9520;50.954;6.968;2022-07-22T00:38:19;101534.44;;;26.33;47.69
18784;BME280;9520;50.954;6.968;2022-07-22T00:38:42;101534.63;;;26.30;47.20
18784;BME280;9520;50.954;6.968;2022-07-22T00:39:04;101530.09;;;26.31;47.15
18784;BME280;9520;50.954;6.968;2022-07-22T00:39:26;101513.97;;;26.15;47.37
18784;BME280;9520;50.954;6.968;2022-07-22T00:39:48;101536.28;;;26.33;47.49
18784;BME280;9520;50.954;6.968;2022-07-22T00:40:11;101530.88;;;26.33;47.82
18784;BME280;9520;50.954;6.968;2022-07-22T00:40:33;101536.50;;;26.30;47.80
18784;BME280;9520;50.954;6.968;2022-07-22T00:40:55;101540.03;;;26.30;47.92
18784;BME280;9520;50.954;6.968;2022-07-22T00:41:17;101541.69;;;26.33;47.68
18784;BME280;9520;50.954;6.968;2022-07-22T00:41:39;101538.13;;;26.32;47.21
18784;BME280;9520;50.954;6.968;2022-07-22T00:42:02;101535.41;;;26.32;47.14
18784;BME280;9520;50.954;6.968;2022-07-22T00:42:24;101538.22;;;26.31;47.78
18784;BME280;9520;50.954;6.968;2022-07-22T00:42:48;101535.72;;;26.28;47.44
18784;BME280;9520;50.954;6.968;2022-07-22T00:43:10;101535.94;;;26.25;47.42
18784;BME280;9520;50.954;6.968;2022-07-22T00:43:51;101531.50;;;26.24;48.05
18784;BME280;9520;50.954;6.968;2022-07-22T00:44:13;101534.06;;;26.25;48.31
18784;BME280;9520;50.954;6.968;2022-07-22T00:44:36;101534.06;;;26.25;47.20
18784;BME280;9520;50.954;6.968;2022-07-22T00:45:01;101532.44;;;26.23;47.65
18784;BME280;9520;50.954;6.968;2022-07-22T00:45:23;101521.91;;;26.18;47.48
18784;BME280;9520;50.954;6.968;2022-07-22T00:45:45;101535.34;;;26.19;47.45
18784;BME280;9520;50.954;6.968;2022-07-22T00:46:07;101535.34;;;26.19;47.83
18784;BME280;9520;50.954;6.968;2022-07-22T00:46:30;101527.50;;;26.15;48.14
18784;BME280;9520;50.954;6.968;2022-07-22T00:46:52;101536.31;;;26.18;48.94
18784;BME280;9520;50.954;6.968;2022-07-22T00:47:15;101538.16;;;26.18;48.52
18784;BME280;9520;50.954;6.968;2022-07-22T00:47:37;101531.88;;;26.17;48.42
18784;BME280;9520;50.954;6.968;2022-07-22T00:48:00;101536.19;;;26.20;48.22
18784;BME280;9520;50.954;6.968;2022-07-22T00:48:23;101532.50;;;26.21;48.55
18784;BME280;9520;50.954;6.968;2022-07-22T00:48:45;101534.28;;;26.22;48.48
18784;BME280;9520;50.954;6.968;2022-07-22T00:49:08;101536.91;;;26.24;47.97
18784;BME280;9520;50.954;6.968;2022-07-22T00:49:30;101526.22;;;26.20;48.26
18784;BME280;9520;50.954;6.968;2022-07-22T00:49:53;101529.44;;;26.27;48.22
18784;BME280;9520;50.954;6.968;2022-07-22T00:50:15;101528.47;;;26.28;48.04
18784;BME280;9520;50.954;6.968;2022-07-22T00:50:38;101534.06;;;26.25;48.45
18784;BME280;9520;50.954;6.968;2022-07-22T00:51:00;101531.50;;;26.24;48.05
18784;BME280;9520;50.954;6.968;2022-07-22T00:51:22;101527.81;;;26.25;47.55
18784;BME280;9520;50.954;6.968;2022-07-22T00:51:46;101528.78;;;26.24;48.02
18784;BME280;9520;50.954;6.968;2022-07-22T00:52:08;101526.94;;;26.24;47.91
18784;BME280;9520;50.954;6.968;2022-07-22T00:52:30;101528.78;;;26.24;48.57
18784;BME280;9520;50.954;6.968;2022-07-22T00:52:52;101528.19;;;26.18;47.92
18784;BME280;9520;50.954;6.968;2022-07-22T00:53:15;101539.47;;;26.25;47.88
18784;BME280;9520;50.954;6.968;2022-07-22T00:53:37;101526.09;;;26.24;48.15
18784;BME280;9520;50.954;6.968;2022-07-22T00:54:01;101531.78;;;26.19;47.64
18784;BME280;9520;50.954;6.968;2022-07-22T00:54:23;101530.78;;;26.20;47.68
18784;BME280;9520;50.954;6.968;2022-07-22T00:54:46;101533.47;;;26.20;47.77
18784;BME280;9520;50.954;6.968;2022-07-22T00:55:08;101517.69;;;26.14;47.55
18784;BME280;9520;50.954;6.968;2022-07-22T00:55:32;101525.50;;;26.18;48.07
18784;BME280;9520;50.954;6.968;2022-07-22T00:55:54;101530.03;;;26.18;48.73
18784;BME280;9520;50.954;6.968;2022-07-22T00:56:18;101519.31;;;26.16;48.58
18784;BME280;9520;50.954;6.968;2022-07-22T00:56:42;101518.34;;;26.17;48.67
18784;BME280;9520;50.954;6.968;2022-07-22T00:57:03;101529.06;;;26.19;48.03
18784;BME280;9520;50.954;6.968;2022-07-22T00:57:25;101519.41;;;26.15;47.78
18784;BME280;9520;50.954;6.968;2022-07-22T00:57:47;101532.72;;;26.18;47.87
18784;BME280;9520;50.954;6.968;2022-07-22T00:58:10;101528.19;;;26.18;47.52
18784;BME280;9520;50.954;6.968;2022-07-22T00:58:32;101523.66;;;26.19;48.04
18784;BME280;9520;50.954;6.968;2022-07-22T00:58:56;101529.94;;;26.19;48.31
18784;BME280;9520;50.954;6.968;2022-07-22T00:59:19;101524.41;;;26.21;49.14
18784;BME280;9520;50.954;6.968;2022-07-22T00:59:42;101506.09;;;26.12;48.78
18784;BME280;9520;50.954;6.968;2022-07-22T01:00:06;101528.00;;;26.21;48.71
18784;BME280;9520;50.954;6.968;2022-07-22T01:00:30;101523.53;;;26.20;48.69
18784;BME280;9520;50.954;6.968;2022-07-22T01:00:52;101526.22;;;26.20;48.81
18784;BME280;9520;50.954;6.968;2022-07-22T01:01:15;101524.53;;;26.19;48.57
18784;BME280;9520;50.954;6.968;2022-07-22T01:01:37;101526.53;;;26.16;47.67
18784;BME280;9520;50.954;6.968;2022-07-22T01:01:59;101524.72;;;26.16;47.57
18784;BME280;9520;50.954;6.968;2022-07-22T01:02:22;101529.38;;;26.14;48.33
18784;BME280;9520;50.954;6.968;2022-07-22T01:02:45;101522.09;;;26.15;47.75
18784;BME280;9520;50.954;6.968;2022-07-22T01:03:06;101519.31;;;26.16;47.83
18784;BME280;9520;50.954;6.968;2022-07-22T01:03:28;101525.59;;;26.17;47.71
18784;BME280;9520;50.954;6.968;2022-07-22T01:03:50;101526.53;;;26.16;48.48
18784;BME280;9520;50.954;6.968;2022-07-22T01:04:21;101504.56;;;26.08;47.92
18784;BME280;9520;50.954;6.968;2022-07-22T01:04:43;101524.63;;;26.18;47.69
18784;BME280;9520;50.954;6.968;2022-07-22T01:05:08;101521.25;;;26.14;47.82
18784;BME280;9520;50.954;6.968;2022-07-22T01:05:31;101520.38;;;26.14;48.22
18784;BME280;9520;50.954;6.968;2022-07-22T01:05:53;101519.31;;;26.16;47.93
18784;BME280;9520;50.954;6.968;2022-07-22T01:06:15;101525.69;;;26.15;48.05
18784;BME280;9520;50.954;6.968;2022-07-22T01:06:37;101520.25;;;26.15;48.42
18784;BME280;9520;50.954;6.968;2022-07-22T01:06:59;101523.19;;;26.12;48.49
18784;BME280;9520;50.954;6.968;2022-07-22T01:07:21;101523.28;;;26.11;48.30
18784;BME280;9520;50.954;6.968;2022-07-22T01:07:43;101514.72;;;26.04;48.30
18784;BME280;9520;50.954;6.968;2022-07-22T01:08:05;101523.41;;;26.09;48.20
18784;BME280;9520;50.954;6.968;2022-07-22T01:08:28;101530.53;;;26.10;48.86
18784;BME280;9520;50.954;6.968;2022-07-22T01:08:51;101520.56;;;26.11;48.58
18784;BME280;9520;50.954;6.968;2022-07-22T01:09:14;101522.41;;;26.10;47.72
18784;BME280;9520;50.954;6.968;2022-07-22T01:09:36;101526.84;;;26.11;47.90
18784;BME280;9520;50.954;6.968;2022-07-22T01:09:58;101512.88;;;26.05;47.90
18784;BME280;9520;50.954;6.968;2022-07-22T01:10:20;101519.81;;;26.09;47.78
18784;BME280;9520;50.954;6.968;2022-07-22T01:10:42;101515.28;;;26.09;47.47
18784;BME280;9520;50.954;6.968;2022-07-22T01:11:08;101516.66;;;26.02;48.34
18784;BME280;9520;50.954;6.968;2022-07-22T01:11:31;101527.06;;;26.08;48.26
18784;BME280;9520;50.954;6.968;2022-07-22T01:11:53;101523.41;;;26.09;48.10
18784;BME280;9520;50.954;6.968;2022-07-22T01:12:15;101532.66;;;26.05;48.34
18784;BME280;9520;50.954;6.968;2022-07-22T01:12:37;101526.59;;;26.02;48.16
18784;BME280;9520;50.954;6.968;2022-07-22T01:13:00;101524.66;;;26.04;48.38
18784;BME280;9520;50.954;6.968;2022-07-22T01:13:21;101502.88;;;25.93;48.62
18784;BME280;9520;50.954;6.968;2022-07-22T01:13:44;101520.22;;;26.03;48.44
18784;BME280;9520;50.954;6.968;2022-07-22T01:14:06;101523.81;;;26.03;48.32
18784;BME280;9520;50.954;6.968;2022-07-22T01:14:29;101512.50;;;25.97;48.29
18784;BME280;9520;50.954;6.968;2022-07-22T01:14:51;101527.25;;;26.05;48.33
18784;BME280;9520;50.954;6.968;2022-07-22T01:15:12;101528.13;;;26.06;47.78
18784;BME280;9520;50.954;6.968;2022-07-22T01:15:34;101515.59;;;26.05;48.00
18784;BME280;9520;50.954;6.968;2022-07-22T01:15:57;101516.56;;;26.04;48.65
18784;BME280;9520;50.954;6.968;2022-07-22T01:16:19;101509.63;;;26.00;48.79
18784;BME280;9520;50.954;6.968;2022-07-22T01:16:41;101517.59;;;26.01;48.15
18784;BME280;9520;50.954;6.968;2022-07-22T01:17:10;101518.56;;;26.00;48.00
18784;BME280;9520;50.954;6.968;2022-07-22T01:17:32;101517.72;;;26.00;48.11
18784;BME280;9520;50.954;6.968;2022-07-22T01:17:53;101523.97;;;26.00;48.08
18784;BME280;9520;50.954;6.968;2022-07-22T01:18:15;101521.28;;;26.00;48.29
18784;BME280;9520;50.954;6.968;2022-07-22T01:18:39;101521.28;;;26.00;48.59
18784;BME280;9520;50.954;6.968;2022-07-22T01:19:02;101518.56;;;26.00;48.50
18784;BME280;9520;50.954;6.968;2022-07-22T01:19:24;101514.25;;;25.98;48.07
18784;BME280;9520;50.954;6.968;2022-07-22T01:19:45;101516.19;;;25.96;48.35
18784;BME280;9520;50.954;6.968;2022-07-22T01:20:10;101520.31;;;26.01;47.92
18784;BME280;9520;50.954;6.968;2022-07-22T01:20:33;101516.88;;;25.99;48.13
18784;BME280;9520;50.954;6.968;2022-07-22T01:20:55;101523.16;;;26.00;48.44
18784;BME280;9520;50.954;6.968;2022-07-22T01:21:17;101522.28;;;25.99;48.89
18784;BME280;9520;50.954;6.968;2022-07-22T01:21:40;101524.09;;;25.99;48.38
18784;BME280;9520;50.954;6.968;2022-07-22T01:22:03;101528.72;;;25.97;48.23
18784;BME280;9520;50.954;6.968;2022-07-22T01:22:26;101491.22;;;25.78;48.10
18784;BME280;9520;50.954;6.968;2022-07-22T01:22:53;101521.50;;;25.97;48.40
18784;BME280;9520;50.954;6.968;2022-07-22T01:23:16;101519.75;;;25.96;48.26
18784;BME280;9520;50.954;6.968;2022-07-22T01:23:38;101522.47;;;25.96;48.29
18784;BME280;9520;50.954;6.968;2022-07-22T01:24:01;101517.25;;;25.93;47.60
18784;BME280;9520;50.954;6.968;2022-07-22T01:24:24;101521.81;;;25.93;48.05
18784;BME280;9520;50.954;6.968;2022-07-22T01:24:47;101519.97;;;25.93;48.18
18784;BME280;9520;50.954;6.968;2022-07-22T01:25:09;101520.72;;;25.95;48.44
18784;BME280;9520;50.954;6.968;2022-07-22T01:25:31;101517.03;;;25.96;48.48
18784;BME280;9520;50.954;6.968;2022-07-22T01:25:53;101525.94;;;25.98;48.91
18784;BME280;9520;50.954;6.968;2022-07-22T01:26:16;101519.75;;;25.96;48.55
18784;BME280;9520;50.954;6.968;2022-07-22T01:26:38;101522.16;;;26.01;48.02
18784;BME280;9520;50.954;6.968;2022-07-22T01:27:00;101523.03;;;26.01;47.97
18784;BME280;9520;50.954;6.968;2022-07-22T01:27:23;101524.66;;;26.04;48.06
18784;BME280;9520;50.954;6.968;2022-07-22T01:27:45;101523.72;;;26.05;47.65
18784;BME280;9520;50.954;6.968;2022-07-22T01:28:07;101512.97;;;26.03;47.87
18784;BME280;9520;50.954;6.968;2022-07-22T01:28:28;101523.59;;;26.06;47.62
18784;BME280;9520;50.954;6.968;2022-07-22T01:28:51;101519.03;;;26.07;48.19
18784;BME280;9520;50.954;6.968;2022-07-22T01:29:14;101528.13;;;26.06;48.40
18784;BME280;9520;50.954;6.968;2022-07-22T01:29:35;101517.31;;;26.06;47.71
18784;BME280;9520;50.954;6.968;2022-07-22T01:29:57;101518.69;;;25.99;47.71
18784;BME280;9520;50.954;6.968;2022-07-22T01:30:20;101528.56;;;26.00;48.05
18784;BME280;9520;50.954;6.968;2022-07-22T01:30:42;101522.28;;;25.99;48.10
18784;BME280;9520;50.954;6.968;2022-07-22T01:31:04;101518.41;;;26.03;48.19
18784;BME280;9520;50.954;6.968;2022-07-22T01:31:26;101505.28;;;25.97;48.65
18784;BME280;9520;50.954;6.968;2022-07-22T01:31:51;101523.88;;;26.02;48.26
18784;BME280;9520;50.954;6.968;2022-07-22T01:32:12;101522.84;;;26.04;48.55
18784;BME280;9520;50.954;6.968;2022-07-22T01:32:34;101521.00;;;26.05;48.45
18784;BME280;9520;50.954;6.968;2022-07-22T01:32:56;101523.72;;;26.05;48.51
18784;BME280;9520;50.954;6.968;2022-07-22T01:33:18;101522.94;;;26.03;49.09
18784;BME280;9520;50.954;6.968;2022-07-22T01:33:40;101522.84;;;26.04;48.67
18784;BME280;9520;50.954;6.968;2022-07-22T01:34:03;101521.97;;;26.04;49.19
18784;BME280;9520;50.954;6.968;2022-07-22T01:34:29;101517.53;;;26.03;48.54
18784;BME280;9520;50.954;6.968;2022-07-22T01:34:51;101519.25;;;26.04;48.85
18784;BME280;9520;50.954;6.968;2022-07-22T01:35:15;101520.13;;;26.04;49.26
18784;BME280;9520;50.954;6.968;2022-07-22T01:35:36;101521.00;;;26.05;48.96
18784;BME280;9520;50.954;6.968;2022-07-22T01:35:58;101521.97;;;26.04;48.73
18784;BME280;9520;50.954;6.968;2022-07-22T01:36:21;101522.94;;;26.03;48.89
18784;BME280;9520;50.954;6.968;2022-07-22T01:36:43;101518.41;;;26.03;48.67
18784;BME280;9520;50.954;6.968;2022-07-22T01:37:05;101513.84;;;26.04;48.46
18784;BME280;9520;50.954;6.968;2022-07-22T01:37:26;101514.72;;;26.04;48.39
18784;BME280;9520;50.954;6.968;2022-07-22T01:37:49;101516.66;;;26.02;48.31
18784;BME280;9520;50.954;6.968;2022-07-22T01:38:11;101516.44;;;26.05;48.73
18784;BME280;9520;50.954;6.968;2022-07-22T01:38:33;101499.94;;;25.96;49.02
18784;BME280;9520;50.954;6.968;2022-07-22T01:38:55;101519.25;;;26.04;49.00
18784;BME280;9520;50.954;6.968;2022-07-22T01:39:18;101508.44;;;26.04;48.81
18784;BME280;9520;50.954;6.968;2022-07-22T01:39:40;101509.31;;;26.04;48.66
18784;BME280;9520;50.954;6.968;2022-07-22T01:40:03;101516.56;;;26.04;48.17
18784;BME280;9520;50.954;6.968;2022-07-22T01:40:25;101515.69;;;26.03;48.06
18784;BME280;9520;50.954;6.968;2022-07-22T01:40:48;101511.03;;;26.05;48.63
18784;BME280;9520;50.954;6.968;2022-07-22T01:41:11;101507.47;;;26.05;48.34
18784;BME280;9520;50.954;6.968;2022-07-22T01:41:33;101510.94;;;26.07;48.39
18784;BME280;9520;50.954;6.968;2022-07-22T01:41:55;101516.34;;;26.07;48.86
18784;BME280;9520;50.954;6.968;2022-07-22T01:42:17;101522.72;;;26.06;48.61
18784;BME280;9520;50.954;6.968;2022-07-22T01:42:40;101515.59;;;26.05;48.90
18784;BME280;9520;50.954;6.968;2022-07-22T01:43:02;101522.72;;;26.06;48.45
18784;BME280;9520;50.954;6.968;2022-07-22T01:43:24;101512.97;;;26.03;48.56
18784;BME280;9520;50.954;6.968;2022-07-22T01:43:45;101496.28;;;25.97;48.25
18784;BME280;9520;50.954;6.968;2022-07-22T01:44:08;101515.59;;;26.05;48.68
18784;BME280;9520;50.954;6.968;2022-07-22T01:44:31;101515.59;;;26.05;48.45
18784;BME280;9520;50.954;6.968;2022-07-22T01:44:53;101511.03;;;26.05;48.91
18784;BME280;9520;50.954;6.968;2022-07-22T01:45:14;101510.28;;;26.03;48.61
18784;BME280;9520;50.954;6.968;2022-07-22T01:45:37;101501.50;;;26.00;48.38
18784;BME280;9520;50.954;6.968;2022-07-22T01:45:59;101517.13;;;26.09;48.26
18784;BME280;9520;50.954;6.968;2022-07-22T01:46:21;101509.97;;;26.08;48.63
18784;BME280;9520;50.954;6.968;2022-07-22T01:46:45;101513.63;;;26.07;48.40
18784;BME280;9520;50.954;6.968;2022-07-22T01:47:07;101507.47;;;26.05;48.87
18784;BME280;9520;50.954;6.968;2022-07-22T01:47:28;101519.91;;;26.07;48.52
18784;BME280;9520;50.954;6.968;2022-07-22T01:47:50;101516.25;;;26.08;48.80
18784;BME280;9520;50.954;6.968;2022-07-22T01:48:12;101511.72;;;26.09;48.03
18784;BME280;9520;50.954;6.968;2022-07-22T01:48:35;101510.75;;;26.10;48.79
18784;BME280;9520;50.954;6.968;2022-07-22T01:48:57;101516.25;;;26.08;48.20
18784;BME280;9520;50.954;6.968;2022-07-22T01:49:23;101510.75;;;26.10;48.55
18784;BME280;9520;50.954;6.968;2022-07-22T01:49:45;101506.50;;;26.06;48.29
18784;BME280;9520;50.954;6.968;2022-07-22T01:50:09;101509.19;;;26.06;48.32
18784;BME280;9520;50.954;6.968;2022-07-22T01:50:33;101491.75;;;25.97;48.23
18784;BME280;9520;50.954;6.968;2022-07-22T01:50:54;101505.34;;;26.10;48.44
18784;BME280;9520;50.954;6.968;2022-07-22T01:51:16;101511.72;;;26.09;48.46
18784;BME280;9520;50.954;6.968;2022-07-22T01:51:39;101517.13;;;26.09;49.02
18784;BME280;9520;50.954;6.968;2022-07-22T01:52:01;101508.03;;;26.10;49.28
18784;BME280;9520;50.954;6.968;2022-07-22T01:52:23;101512.38;;;26.12;48.78
18784;BME280;9520;50.954;6.968;2022-07-22T01:52:45;101500.78;;;26.10;48.63
18784;BME280;9520;50.954;6.968;2022-07-22T01:53:07;101505.13;;;26.13;48.76
18784;BME280;9520;50.954;6.968;2022-07-22T01:53:30;101512.16;;;26.15;48.79
18784;BME280;9520;50.954;6.968;2022-07-22T01:53:53;101515.72;;;26.16;48.38
18784;BME280;9520;50.954;6.968;2022-07-22T01:54:15;101508.56;;;26.15;48.23
18784;BME280;9520;50.954;6.968;2022-07-22T01:54:40;101506.09;;;26.12;48.70
18784;BME280;9520;50.954;6.968;2022-07-22T01:55:02;101504.16;;;26.14;48.26
18784;BME280;9520;50.954;6.968;2022-07-22T01:55:23;101509.56;;;26.14;47.86
18784;BME280;9520;50.954;6.968;2022-07-22T01:55:45;101507.81;;;26.13;48.51
18784;BME280;9520;50.954;6.968;2022-07-22T01:56:10;101511.50;;;26.12;48.35
18784;BME280;9520;50.954;6.968;2022-07-22T01:56:39;101511.59;;;26.10;48.64
18784;BME280;9520;50.954;6.968;2022-07-22T01:57:01;101500.91;;;26.09;48.41
18784;BME280;9520;50.954;6.968;2022-07-22T01:57:24;101508.13;;;26.08;48.31
18784;BME280;9520;50.954;6.968;2022-07-22T01:57:47;101511.72;;;26.09;48.83
18784;BME280;9520;50.954;6.968;2022-07-22T01:58:17;101508.13;;;26.08;49.19
18784;BME280;9520;50.954;6.968;2022-07-22T01:58:40;101501.84;;;26.08;48.68
18784;BME280;9520;50.954;6.968;2022-07-22T01:59:07;101499.84;;;25.97;48.43
18784;BME280;9520;50.954;6.968;2022-07-22T01:59:29;101497.81;;;26.01;48.65
18784;BME280;9520;50.954;6.968;2022-07-22T01:59:52;101507.66;;;26.02;48.80
18784;BME280;9520;50.954;6.968;2022-07-22T02:00:15;101509.50;;;26.01;49.13